Court-Saint-Etienne, Belgium
Current Conditions -  °F | °C
As of 6:55 PM on Sunday 25 Jan 2015 (Local Time) from EBBE Reporting Station
Overcast Overcast  
Wind Chill: 33°   Ceiling: 6500
Heat Index: 37°   Visibility: 5mi
Dew Point: 34°   Wind: 6mph
Humidity: 87%   Direction: 210°SSW
Pressure: 30.39"   Gusts: NA
Location:  50.63°N, 4.57°E
Report Text: EBBE 251755Z AUTO 21005KT 8000 OVC065/// 03/01 Q1029 BLU
Loading
Personal Weather Stations






























Interactive Weather Map New forecast layout! Learn more

10-Day Weather Forecast

Advertisements
Track Severe Weather on mobile